Afyon, Turkey

10:37 PM EEST on August 20, 2014 (GMT +0300)
Suleyman Demirel | Change Station
CLOSE
Current Station
Airport
Location: Suleyman Demirel,
Elevation: 2835 ft
Nearby Weather Stations

Elev 2835 ft 37.86 °N, 30.37 °E | Updated 17 minutes ago

Clear
Clear
79 °F
Feels Like 79 °F
N
6
Wind Variable Wind from North

Today
High -- | Low -- °F
--% Chance of Precip.
Yesterday
High -- | Low -- °F
Precip. -- in
6:15 AM 7:46 PM
Waning Crescent, 19% visible
Pressure 30.04 in
Visibility -9999.0 miles
Clouds
Dew Point 45 °F
Humidity 30%
Rainfall 0.00 in
Snow Depth Not available.
UV Not available.
Pollen Not available.
Air Quality Not available.
Flu Activity Not available.
METAR LTFC 201920Z 36005KT 330V030 CAVOK 26/07 Q1017 RMK RWY23 VRB02KT

More Conditions Fewer Conditions

Pressure 30.04 in
Visibility -9999.0 miles
Clouds
Dew Point 45 °F
Humidity 30%
Rainfall 0.00 in
Snow Depth Not available.
UV Not available.
Pollen Not available.
Air Quality Not available.
Flu Activity Not available.
METAR LTFC 201920Z 36005KT 330V030 CAVOK 26/07 Q1017 RMK RWY23 VRB02KT

More Conditions Fewer Conditions

10-Day Weather Forecast

Almanac

Astronomy

Aug. 20, 2014 Rise Set
Actual Time 6:15 AM EEST 7:46 PM EEST
Civil Twilight 5:47 AM EEST 8:13 PM EEST
Nautical Twilight 5:14 AM EEST 8:47 PM EEST
Astronomical Twilight 4:38 AM EEST 9:23 PM EEST
Moon 1:40 AM EEST 4:14 PM EEST
Length of Visible Light 14h 26m
Length of Day
13h 30m
Tomorrow will be 2m 17s shorter.
Waning Crescent, 19% of the Moon is Illuminated
Today
Waning Crescent
Aug 25
New
Sep 2
First Quarter
Sep 8
Full
Sep 15
Last Quarter

Today's Extremes

Country Highs Country Lows

Community

WunderPhotos

Upload Photos

1,745,727 photos uploaded!

WunderBlogs® & News

By Dr. Jeff Masters
Director of Meteorology, Weather Underground
By Kari Strenfel
Meteorologist, Weather Underground
By Christopher C. Burt
Weather Historian, Weather Underground
August 20, 2014
August 20, 2014
August 20, 2014

Nearby

Snow Depth

Not available.

Earthquake Activity

City Distance Mag. Time & Date
No recent earthquake activity has been reported nearby.
Minimum magnitude displayed is 2.5.

Coastal Water Temperatures

Place Temperature
No Stations Reporting

Nearby Weather Stations